Time;durP1;ratioP1;P1;durP2;ratioP2;P2;SDS_P1;SDS_P2;PMS_P1;PMS_P2;Temp;Humidity;BMP_temperature;BMP_pressure;BME280_temperature;BME280_humidity;BME280_pressure;Samples;Min_cycle;Max_cycle;Signal;HPM_P1;HPM_P2
2022/10/13 00:00:37;;;;;;;4.10;3.27;;;10.20;99.90;9.40;101315;;;;559670;254;24145;-79
2022/10/13 00:03:03;;;;;;;12.73;3.60;;;10.10;99.90;9.40;101319;;;;562054;252;24171;-78
2022/10/13 00:05:34;;;;;;;9.03;4.07;;;10.10;99.90;9.40;101311;;;;553957;255;24146;-79
2022/10/13 00:08:02;;;;;;;5.40;3.47;;;10.10;99.90;9.40;101306;;;;561703;250;24175;-79
2022/10/13 00:10:27;;;;;;;7.50;3.40;;;10.20;99.90;9.40;101306;;;;562327;250;24156;-81
2022/10/13 00:12:55;;;;;;;6.63;3.20;;;10.20;99.90;9.40;101312;;;;563326;251;24231;-80
2022/10/13 00:15:24;;;;;;;4.47;2.90;;;10.20;99.90;9.50;101317;;;;563254;254;24161;-80
2022/10/13 00:17:51;;;;;;;10.00;3.23;;;10.20;99.90;9.40;101317;;;;562892;250;24140;-80
2022/10/13 00:20:20;;;;;;;7.97;3.40;;;10.20;99.90;9.50;101319;;;;554491;254;24174;-78
2022/10/13 00:22:51;;;;;;;3.77;3.20;;;10.20;99.90;9.50;101314;;;;562698;254;24163;-77
2022/10/13 00:25:16;;;;;;;9.73;3.57;;;10.20;99.90;9.50;101309;;;;554350;254;24222;-79
2022/10/13 00:27:44;;;;;;;4.70;3.27;;;10.20;99.90;9.50;101307;;;;562739;254;24152;-80
2022/10/13 00:30:12;;;;;;;9.43;3.40;;;10.30;99.90;9.50;101306;;;;562392;255;24204;-79
2022/10/13 00:32:41;;;;;;;3.77;3.13;;;10.30;99.90;9.50;101311;;;;562763;255;24175;-79
2022/10/13 00:35:11;;;;;;;3.37;3.03;;;10.30;99.90;9.50;101312;;;;562810;250;24174;-78
2022/10/13 00:37:36;;;;;;;4.40;2.87;;;10.30;99.90;9.60;101314;;;;554533;255;24208;-79
2022/10/13 00:40:04;;;;;;;5.57;3.10;;;10.30;99.90;9.60;101317;;;;562788;250;24156;-79
2022/10/13 00:42:32;;;;;;;4.47;2.77;;;10.30;99.90;9.60;101313;;;;562741;255;24136;-79
2022/10/13 00:45:22;;;;;;;8.43;4.03;;;10.40;99.90;9.60;101316;;;;562843;255;24147;-78
2022/10/13 00:47:53;;;;;;;7.50;3.37;;;10.40;99.90;9.60;101318;;;;556512;255;24161;-78
2022/10/13 00:50:21;;;;;;;4.43;3.20;;;10.30;99.90;9.60;101311;;;;562481;254;24146;-79
2022/10/13 00:52:51;;;;;;;3.63;2.90;;;10.40;99.90;9.60;101309;;;;562473;250;24172;-79
2022/10/13 00:55:16;;;;;;;6.70;3.47;;;10.40;99.90;9.60;101304;;;;554212;255;24228;-79
2022/10/13 00:57:45;;;;;;;5.80;3.07;;;10.40;99.90;9.60;101309;;;;554288;255;24188;-79
2022/10/13 01:00:18;;;;;;;5.67;2.77;;;10.40;99.90;9.60;101304;;;;562507;255;25211;-80
2022/10/13 01:02:42;;;;;;;4.50;3.00;;;10.40;99.90;9.60;101302;;;;562403;251;24216;-80
2022/10/13 01:05:10;;;;;;;3.87;2.97;;;10.40;99.90;9.60;101302;;;;562166;255;24194;-78
2022/10/13 01:07:38;;;;;;;5.80;3.00;;;10.40;99.90;9.70;101300;;;;562299;251;24177;-81
2022/10/13 01:10:09;;;;;;;5.27;2.50;;;10.40;99.90;9.70;101297;;;;562214;250;24171;-78
2022/10/13 01:12:41;;;;;;;3.37;2.23;;;10.50;99.90;9.70;101300;;;;553921;251;24191;-79
2022/10/13 01:15:40;;;;;;;5.77;2.90;;;10.40;99.90;9.70;101294;;;;562340;250;24193;-79
2022/10/13 01:18:19;;;;;;;3.17;2.60;;;10.50;99.90;9.70;101294;;;;562569;251;24193;-80
2022/10/13 01:20:59;;;;;;;4.10;3.00;;;10.50;99.90;9.70;101298;;;;562533;255;24151;-80
2022/10/13 01:23:39;;;;;;;4.90;2.73;;;10.50;99.90;9.70;101285;;;;563693;250;24179;-78
2022/10/13 01:26:48;;;;;;;5.00;2.63;;;10.40;99.90;9.70;101290;;;;563538;254;24221;-79
2022/10/13 01:29:37;;;;;;;3.10;2.27;;;10.40;99.90;9.70;101292;;;;554606;254;24170;-79
2022/10/13 01:32:12;;;;;;;3.63;2.40;;;10.50;99.90;9.70;101284;;;;554414;254;24180;-79
2022/10/13 01:34:52;;;;;;;3.37;2.33;;;10.50;99.90;9.70;101289;;;;563042;250;24184;-81
2022/10/13 01:37:34;;;;;;;3.17;2.53;;;10.50;99.90;9.80;101280;;;;562769;250;24225;-83
2022/10/13 01:40:14;;;;;;;8.73;2.53;;;10.50;99.90;9.80;101276;;;;563130;254;24169;-80
2022/10/13 01:42:53;;;;;;;4.23;2.40;;;10.50;99.90;9.80;101284;;;;562521;250;24149;-80
2022/10/13 01:45:21;;;;;;;5.50;2.40;;;10.50;99.90;9.80;101277;;;;562877;254;24150;-82
2022/10/13 01:47:50;;;;;;;6.37;2.13;;;10.50;99.90;9.80;101273;;;;562373;251;24209;-78
2022/10/13 01:50:21;;;;;;;3.27;2.43;;;10.50;99.90;9.80;101263;;;;562596;254;24168;-79
2022/10/13 01:52:46;;;;;;;3.03;2.23;;;10.60;99.90;9.90;101268;;;;562344;255;24165;-80
2022/10/13 01:55:15;;;;;;;4.57;2.70;;;10.60;99.90;9.90;101269;;;;562330;255;24172;-79
2022/10/13 01:57:43;;;;;;;6.33;3.40;;;10.60;99.90;9.90;101258;;;;562616;255;24152;-84
2022/10/13 02:00:18;;;;;;;6.17;2.23;;;10.60;99.90;9.90;101255;;;;562257;250;24143;-83
2022/10/13 02:02:55;;;;;;;4.17;2.50;;;10.60;99.90;9.90;101249;;;;562414;251;24196;-84
2022/10/13 02:05:48;;;;;;;2.63;2.43;;;10.60;99.90;9.90;101249;;;;561999;255;24163;-84
2022/10/13 02:08:24;;;;;;;6.27;2.43;;;10.60;99.90;9.90;101251;;;;554409;255;24181;-84
2022/10/13 02:10:58;;;;;;;3.80;2.20;;;10.60;99.90;9.90;101249;;;;562587;255;24153;-84
2022/10/13 02:13:26;;;;;;;6.03;2.10;;;10.60;99.90;9.90;101249;;;;562977;252;24168;-82
2022/10/13 02:15:54;;;;;;;5.07;2.27;;;10.60;99.90;9.90;101240;;;;563002;250;24191;-83
2022/10/13 02:18:22;;;;;;;5.63;2.90;;;10.60;99.90;9.80;101243;;;;563053;255;24157;-83
2022/10/13 02:20:53;;;;;;;3.53;2.03;;;10.60;99.90;9.80;101250;;;;564116;254;24239;-79
2022/10/13 02:23:18;;;;;;;5.13;2.37;;;10.50;99.90;9.80;101242;;;;563892;255;24190;-79
2022/10/13 02:25:46;;;;;;;4.13;2.63;;;10.50;99.90;9.80;101245;;;;561101;254;24215;-81
2022/10/13 02:28:14;;;;;;;4.50;2.33;;;10.50;99.90;9.70;101239;;;;555262;255;24270;-80
2022/10/13 02:30:42;;;;;;;2.80;2.60;;;10.40;99.90;9.70;101233;;;;554696;255;24166;-84
2022/10/13 02:33:10;;;;;;;5.87;2.80;;;10.40;99.90;9.70;101243;;;;562733;253;24153;-79
2022/10/13 02:35:41;;;;;;;5.23;2.87;;;10.40;99.90;9.70;101238;;;;564066;250;24155;-81
2022/10/13 02:38:10;;;;;;;3.30;2.37;;;10.40;99.90;9.60;101239;;;;554395;254;24232;-82
2022/10/13 02:40:37;;;;;;;7.03;2.30;;;10.40;99.90;9.60;101233;;;;563008;254;24159;-84
2022/10/13 02:43:06;;;;;;;7.97;2.47;;;10.40;99.90;9.60;101239;;;;563065;254;24175;-84
2022/10/13 02:45:34;;;;;;;3.07;2.20;;;10.30;99.90;9.50;101236;;;;555026;254;24159;-82
2022/10/13 02:48:03;;;;;;;2.33;2.13;;;10.20;99.90;9.50;101237;;;;563065;254;25198;-83
2022/10/13 02:50:32;;;;;;;2.17;1.97;;;10.30;99.90;9.50;101236;;;;563381;251;24180;-82
2022/10/13 02:53:00;;;;;;;4.40;2.53;;;10.20;99.90;9.50;101231;;;;562975;255;24173;-80
2022/10/13 02:55:28;;;;;;;7.17;2.70;;;10.20;99.90;9.50;101232;;;;562654;255;24172;-84
2022/10/13 02:57:59;;;;;;;6.43;2.60;;;10.30;99.90;9.50;101230;;;;562824;255;24174;-80
2022/10/13 03:00:27;;;;;;;4.40;2.77;;;10.20;99.90;9.50;101231;;;;562935;251;24121;-83
2022/10/13 03:02:55;;;;;;;4.53;2.83;;;10.20;99.90;9.50;101222;;;;563063;255;24171;-81
2022/10/13 03:05:19;;;;;;;3.90;2.47;;;10.20;99.90;9.50;101227;;;;554685;255;24203;-81
2022/10/13 03:07:48;;;;;;;3.97;2.83;;;10.20;99.90;9.50;101228;;;;563184;250;24171;-80
2022/10/13 03:10:15;;;;;;;4.33;2.50;;;10.20;99.90;9.50;101231;;;;563056;250;24164;-80
2022/10/13 03:12:43;;;;;;;2.40;2.20;;;10.20;99.90;9.50;101230;;;;554258;255;24172;-80
2022/10/13 03:15:11;;;;;;;9.77;2.80;;;10.20;99.90;9.50;101235;;;;562982;255;24146;-81
2022/10/13 03:17:39;;;;;;;7.97;2.80;;;10.20;99.90;9.50;101228;;;;562949;251;24165;-80
2022/10/13 03:20:07;;;;;;;2.33;2.13;;;10.20;99.90;9.40;101225;;;;563020;255;24169;-79
2022/10/13 03:22:35;;;;;;;2.63;2.10;;;10.20;99.90;9.40;101224;;;;555178;255;24166;-80
2022/10/13 03:25:03;;;;;;;5.07;2.67;;;10.10;99.90;9.40;101220;;;;560320;254;24204;-84
2022/10/13 03:27:31;;;;;;;7.57;2.23;;;10.10;99.90;9.40;101228;;;;554978;255;24236;-83
2022/10/13 03:29:59;;;;;;;5.00;2.40;;;10.20;99.90;9.40;101233;;;;562870;255;24161;-79
2022/10/13 03:32:27;;;;;;;5.40;2.77;;;10.10;99.90;9.40;101226;;;;563088;255;24161;-82
2022/10/13 03:34:55;;;;;;;3.47;2.33;;;10.10;99.90;9.40;101225;;;;568392;250;24193;-83
2022/10/13 03:37:22;;;;;;;4.43;2.60;;;10.10;99.90;9.40;101220;;;;554482;254;24166;-82
2022/10/13 03:39:54;;;;;;;4.17;2.53;;;10.10;99.90;9.40;101218;;;;563569;255;24236;-83
2022/10/13 03:42:18;;;;;;;3.77;2.30;;;10.10;99.90;9.40;101214;;;;560223;255;24163;-81
2022/10/13 03:44:56;;;;;;;4.17;2.87;;;10.10;99.90;9.40;101214;;;;562713;253;24152;-79
2022/10/13 03:47:14;;;;;;;2.83;2.47;;;10.10;99.90;9.40;101213;;;;563173;254;24159;-80
2022/10/13 03:49:42;;;;;;;4.67;2.20;;;10.10;99.90;9.40;101215;;;;563533;250;24157;-80
2022/10/13 03:52:10;;;;;;;4.37;2.53;;;10.10;99.90;9.40;101215;;;;563509;254;24176;-80
2022/10/13 03:54:38;;;;;;;3.47;2.53;;;10.10;99.90;9.40;101213;;;;563385;250;24232;-83
2022/10/13 03:57:06;;;;;;;5.30;2.60;;;10.10;99.90;9.40;101212;;;;554892;254;24176;-82
2022/10/13 03:59:34;;;;;;;5.43;2.80;;;10.10;99.90;9.40;101208;;;;563144;250;25210;-80
2022/10/13 04:02:02;;;;;;;5.07;2.53;;;10.10;99.90;9.40;101200;;;;563109;254;25228;-79
2022/10/13 04:04:29;;;;;;;4.93;2.40;;;10.10;99.90;9.40;101201;;;;562959;250;24157;-81
2022/10/13 04:06:57;;;;;;;3.47;2.57;;;10.10;99.90;9.40;101205;;;;562812;255;24156;-80
2022/10/13 04:09:25;;;;;;;4.90;2.17;;;10.10;99.90;9.30;101201;;;;562866;255;24139;-79
2022/10/13 04:11:53;;;;;;;3.23;2.13;;;10.10;99.90;9.30;101202;;;;562440;255;24161;-79
2022/10/13 04:14:22;;;;;;;7.63;2.40;;;10.10;99.90;9.30;101204;;;;559664;253;24207;-81
2022/10/13 04:16:50;;;;;;;4.70;2.30;;;10.10;99.90;9.30;101199;;;;562712;255;24154;-81
2022/10/13 04:19:18;;;;;;;5.37;2.23;;;10.10;99.90;9.30;101208;;;;562465;255;24184;-81
2022/10/13 04:21:46;;;;;;;4.43;2.50;;;10.00;99.90;9.30;101200;;;;562511;250;24160;-84
2022/10/13 04:24:13;;;;;;;5.23;2.87;;;10.00;99.90;9.30;101205;;;;562813;250;24164;-85
2022/10/13 04:26:41;;;;;;;11.00;2.50;;;10.00;99.90;9.30;101201;;;;554965;255;24186;-82
2022/10/13 04:29:09;;;;;;;5.73;2.83;;;10.00;99.90;9.30;101193;;;;563227;255;24156;-83
2022/10/13 04:31:41;;;;;;;4.33;2.63;;;10.10;99.90;9.30;101201;;;;562874;255;24160;-84
2022/10/13 04:34:06;;;;;;;4.53;2.67;;;10.00;99.90;9.30;101196;;;;554548;255;24143;-84
2022/10/13 04:36:37;;;;;;;4.57;2.93;;;10.10;99.90;9.30;101197;;;;562667;250;24152;-83
2022/10/13 04:39:02;;;;;;;11.43;3.30;;;10.00;99.90;9.30;101189;;;;554493;255;24217;-84
2022/10/13 04:41:30;;;;;;;6.63;3.23;;;10.10;99.90;9.30;101187;;;;562961;251;24164;-80
2022/10/13 04:44:01;;;;;;;7.40;3.93;;;10.10;99.90;9.30;101183;;;;563070;255;24145;-80
2022/10/13 04:46:29;;;;;;;6.17;3.50;;;10.00;99.90;9.30;101183;;;;554400;255;24152;-82
2022/10/13 04:48:54;;;;;;;10.90;3.30;;;10.00;99.90;9.20;101187;;;;563207;255;24185;-80
2022/10/13 04:51:21;;;;;;;4.57;3.37;;;10.00;99.90;9.20;101183;;;;563111;255;24126;-85
2022/10/13 04:53:49;;;;;;;6.00;3.33;;;9.90;99.90;9.10;101176;;;;563297;255;24154;-86
2022/10/13 04:56:17;;;;;;;9.00;3.40;;;9.90;99.90;9.10;101165;;;;555111;255;24243;-84
2022/10/13 04:58:45;;;;;;;4.87;3.43;;;9.80;99.90;9.00;101177;;;;564871;249;24144;-84
2022/10/13 05:01:16;;;;;;;7.83;3.67;;;9.80;99.90;9.00;101185;;;;564308;250;24184;-84
2022/10/13 05:03:44;;;;;;;7.73;3.77;;;9.70;99.90;8.90;101186;;;;555945;254;24163;-83
2022/10/13 05:06:24;;;;;;;4.57;3.20;;;9.60;99.90;8.90;101182;;;;555682;254;24170;-85
2022/10/13 05:08:53;;;;;;;10.53;4.90;;;9.60;99.90;8.90;101187;;;;563286;250;24309;-83
2022/10/13 05:11:21;;;;;;;9.40;4.60;;;9.60;99.90;8.90;101186;;;;555126;254;24183;-84
2022/10/13 05:13:49;;;;;;;17.50;5.30;;;9.60;99.90;8.80;101179;;;;562725;251;24202;-84
2022/10/13 05:16:20;;;;;;;8.53;5.03;;;9.50;99.90;8.80;101186;;;;554214;255;24170;-84
2022/10/13 05:18:46;;;;;;;12.40;5.43;;;9.50;99.90;8.80;101180;;;;554256;255;24165;-83
2022/10/13 05:21:16;;;;;;;12.20;6.13;;;9.40;99.90;8.70;101185;;;;553716;255;24142;-84
2022/10/13 05:23:44;;;;;;;14.37;5.93;;;9.40;99.90;8.70;101178;;;;553294;255;24163;-83
2022/10/13 05:26:12;;;;;;;12.37;5.67;;;9.40;99.90;8.60;101184;;;;554252;255;24160;-84
2022/10/13 05:28:40;;;;;;;20.50;6.97;;;9.40;99.90;8.60;101182;;;;554119;255;25212;-84
2022/10/13 05:31:19;;;;;;;15.40;6.40;;;9.30;99.90;8.50;101174;;;;562524;255;24141;-81
2022/10/13 05:33:50;;;;;;;25.23;6.33;;;9.20;99.90;8.40;101173;;;;553756;255;24140;-82
2022/10/13 05:36:18;;;;;;;11.43;6.03;;;9.10;99.90;8.30;101176;;;;553967;255;24173;-83
2022/10/13 05:38:46;;;;;;;12.13;6.47;;;9.00;99.90;8.30;101174;;;;553488;251;24274;-85
2022/10/13 05:41:16;;;;;;;12.33;6.40;;;9.00;99.90;8.30;101178;;;;554433;255;25222;-83
2022/10/13 05:43:42;;;;;;;13.87;6.93;;;8.90;99.90;8.30;101167;;;;562533;251;24157;-83
2022/10/13 05:46:10;;;;;;;9.40;6.97;;;8.90;99.90;8.30;101165;;;;562636;255;24149;-82
2022/10/13 05:48:38;;;;;;;20.93;7.60;;;8.90;99.90;8.20;101160;;;;554398;255;24180;-83
2022/10/13 05:51:06;;;;;;;22.23;8.70;;;8.90;99.90;8.20;101167;;;;554518;255;24322;-83
2022/10/13 05:53:34;;;;;;;19.10;7.73;;;8.90;99.90;8.20;101165;;;;562336;251;24207;-80
2022/10/13 05:56:05;;;;;;;16.53;7.60;;;8.90;99.90;8.30;101157;;;;554277;255;25221;-79
2022/10/13 05:58:30;;;;;;;33.83;13.32;;;8.90;99.90;8.20;101158;;;;557296;251;35667;-78
2022/10/13 06:01:01;;;;;;;34.70;10.47;;;8.90;99.90;8.20;101158;;;;562260;255;26604;-83
2022/10/13 06:03:29;;;;;;;20.77;9.40;;;8.90;99.90;8.20;101156;;;;553418;255;24153;-81
2022/10/13 06:05:54;;;;;;;22.20;9.90;;;8.90;99.90;8.10;101156;;;;554153;255;24179;-84
2022/10/13 06:08:22;;;;;;;72.43;11.97;;;8.90;99.90;8.10;101155;;;;554343;254;24141;-79
2022/10/13 06:10:51;;;;;;;27.33;9.20;;;8.80;99.90;8.10;101172;;;;563789;254;24145;-80
2022/10/13 06:13:19;;;;;;;23.30;11.03;;;8.80;99.90;8.20;101168;;;;555005;254;24158;-81
2022/10/13 06:15:47;;;;;;;22.87;10.77;;;8.90;99.90;8.20;101162;;;;554172;254;24175;-80
2022/10/13 06:18:16;;;;;;;33.87;11.13;;;8.90;99.90;8.20;101164;;;;554576;254;24151;-83
2022/10/13 06:20:44;;;;;;;47.87;11.90;;;8.90;99.90;8.30;101168;;;;554360;254;24183;-81
2022/10/13 06:23:12;;;;;;;20.57;10.13;;;9.00;99.90;8.40;101176;;;;554527;254;24166;-81
2022/10/13 06:25:45;;;;;;;21.97;9.60;;;9.10;99.90;8.50;101169;;;;554370;254;24157;-79
2022/10/13 06:28:17;;;;;;;33.17;10.43;;;9.30;99.90;8.60;101168;;;;562031;250;24161;-79
2022/10/13 06:30:45;;;;;;;46.33;10.97;;;9.40;99.90;8.70;101166;;;;553201;255;24188;-79
2022/10/13 06:33:11;;;;;;;25.43;9.63;;;9.40;99.90;9.10;101162;;;;554299;255;24325;-79
2022/10/13 06:35:38;;;;;;;42.37;11.63;;;9.70;99.90;10.20;101157;;;;554321;255;24169;-83
2022/10/13 06:38:08;;;;;;;30.77;13.57;;;10.60;99.90;12.00;101159;;;;549412;255;35712;-80
2022/10/13 06:40:34;;;;;;;29.70;11.00;;;12.00;99.90;13.70;101157;;;;553246;255;24210;-84
2022/10/13 06:43:02;;;;;;;22.83;10.60;;;13.60;99.90;15.30;101160;;;;553548;255;24129;-81
2022/10/13 06:45:30;;;;;;;51.77;12.93;;;15.30;99.90;16.80;101149;;;;553389;255;24217;-83
2022/10/13 06:47:58;;;;;;;28.80;10.50;;;16.80;99.90;17.90;101157;;;;553260;255;24241;-84
2022/10/13 06:50:26;;;;;;;23.50;11.65;;;18.10;99.90;19.00;101165;;;;548507;255;46684;-84
2022/10/13 06:52:58;;;;;;;20.53;10.23;;;19.20;99.90;20.00;101152;;;;553260;255;24186;-84
2022/10/13 06:55:22;;;;;;;28.23;11.17;;;20.20;99.90;21.00;101148;;;;554088;255;24277;-82
2022/10/13 06:57:50;;;;;;;23.37;12.23;;;22.10;96.90;21.80;101150;;;;553140;255;24199;-83
2022/10/13 07:00:18;;;;;;;25.27;11.40;;;22.00;96.90;22.60;101154;;;;553173;255;24131;-83
2022/10/13 07:02:46;;;;;;;24.40;10.40;;;22.90;94.00;23.50;101157;;;;553173;255;24198;-79
2022/10/13 07:05:15;;;;;;;20.27;9.50;;;24.40;84.90;24.10;101149;;;;554295;255;24164;-83
2022/10/13 07:07:44;;;;;;;16.10;9.80;;;24.80;78.00;24.40;101152;;;;562532;251;24182;-84
2022/10/13 07:10:12;;;;;;;22.23;10.20;;;25.20;75.00;24.80;101154;;;;562612;251;24153;-84
2022/10/13 07:12:41;;;;;;;16.03;8.97;;;25.60;71.60;25.20;101148;;;;553202;251;24188;-82
2022/10/13 07:15:09;;;;;;;15.80;9.53;;;25.60;71.60;25.30;101143;;;;562537;250;24162;-85
2022/10/13 07:17:38;;;;;;;17.93;9.67;;;25.70;70.00;25.70;101144;;;;562250;255;23239;-84
2022/10/13 07:20:09;;;;;;;18.07;10.00;;;26.10;67.60;26.10;101153;;;;562835;251;23157;-84
2022/10/13 07:22:36;;;;;;;21.57;9.63;;;26.60;66.00;26.20;101152;;;;555035;254;23289;-86
2022/10/13 07:25:01;;;;;;;19.27;9.97;;;26.70;64.10;26.80;101146;;;;563036;250;24242;-84
2022/10/13 07:27:29;;;;;;;21.00;9.80;;;27.20;61.60;26.70;101138;;;;563065;250;23155;-80
2022/10/13 07:29:57;;;;;;;15.90;10.00;;;27.30;60.10;26.80;101144;;;;562749;254;23205;-83
2022/10/13 07:32:25;;;;;;;21.03;9.43;;;27.30;59.50;26.80;101140;;;;553430;254;23259;-81
2022/10/13 07:34:52;;;;;;;19.17;9.63;;;27.20;59.00;26.80;101145;;;;562627;250;23186;-85
2022/10/13 07:37:20;;;;;;;20.20;10.13;;;27.20;58.70;27.10;101146;;;;561054;253;24180;-80
2022/10/13 07:39:48;;;;;;;19.03;9.10;;;27.50;58.00;27.30;101150;;;;572666;246;23127;-83
2022/10/13 07:42:19;;;;;;;18.77;9.90;;;27.70;57.40;28.00;101147;;;;552958;255;23208;-81
2022/10/13 07:44:44;;;;;;;14.07;8.67;;;28.30;56.20;28.10;101146;;;;554529;255;23233;-83
2022/10/13 07:47:12;;;;;;;19.57;9.77;;;28.70;55.50;28.50;101153;;;;559894;255;24141;-82
2022/10/13 07:49:40;;;;;;;22.10;9.53;;;29.00;54.80;29.00;101145;;;;562886;255;23141;-82
2022/10/13 07:52:08;;;;;;;18.60;9.07;;;29.50;53.70;29.30;101140;;;;562759;255;23166;-82
2022/10/13 07:54:36;;;;;;;12.47;8.60;;;29.80;53.00;29.80;101137;;;;562797;255;23165;-83
2022/10/13 07:57:04;;;;;;;19.90;9.73;;;30.40;51.30;30.00;101124;;;;562630;250;24146;-84
2022/10/13 07:59:34;;;;;;;16.05;9.40;;;30.60;50.80;30.10;101123;;;;562540;255;24136;-80
2022/10/13 08:02:00;;;;;;;12.32;8.48;;;30.90;50.20;30.30;101129;;;;562181;251;23148;-82
2022/10/13 08:04:34;;;;;;;13.62;8.05;;;31.00;49.20;30.00;101131;;;;562386;250;23198;-83
2022/10/13 08:06:58;;;;;;;16.62;8.73;;;30.90;49.40;30.20;101131;;;;554278;255;23192;-82
2022/10/13 08:09:30;;;;;;;15.20;8.40;;;30.90;49.90;30.80;101122;;;;562597;251;23144;-80
2022/10/13 08:11:54;;;;;;;19.58;8.77;;;31.30;48.80;31.30;101119;;;;553950;255;23156;-83
2022/10/13 08:14:22;;;;;;;15.85;8.63;;;31.80;48.60;31.60;101122;;;;562357;251;24172;-81
2022/10/13 08:16:50;;;;;;;11.27;7.37;;;32.20;47.80;31.90;101117;;;;562128;255;23162;-80
2022/10/13 08:19:20;;;;;;;12.63;8.40;;;32.70;46.30;32.10;101127;;;;562140;255;24198;-80
2022/10/13 08:21:46;;;;;;;13.68;8.35;;;32.90;45.80;32.10;101128;;;;562085;255;23159;-79
2022/10/13 08:24:14;;;;;;;11.63;7.65;;;32.90;45.60;31.60;101125;;;;562074;255;23163;-81
2022/10/13 08:26:45;;;;;;;13.43;7.50;;;32.70;45.00;31.40;101120;;;;554052;255;23155;-78
2022/10/13 08:29:12;;;;;;;14.23;7.37;;;32.50;44.80;31.00;101114;;;;562036;255;23163;-81
2022/10/13 08:31:38;;;;;;;13.57;8.10;;;32.20;44.90;30.30;101108;;;;553866;254;24191;-79
2022/10/13 08:34:05;;;;;;;13.95;7.53;;;31.60;45.40;30.20;101113;;;;563360;254;23146;-84
2022/10/13 08:36:37;;;;;;;13.57;7.60;;;31.40;45.80;29.80;101115;;;;562891;254;23156;-83
2022/10/13 08:39:01;;;;;;;11.32;7.18;;;31.00;46.00;30.10;101099;;;;562497;250;23157;-80
2022/10/13 08:41:32;;;;;;;9.30;6.70;;;31.00;46.50;30.20;101108;;;;562790;254;23155;-81
2022/10/13 08:44:04;;;;;;;16.52;7.45;;;31.40;46.10;30.40;101103;;;;562753;251;23159;-83
2022/10/13 08:46:46;;;;;;;13.05;7.12;;;31.30;46.00;30.70;101105;;;;554244;254;23168;-82
2022/10/13 08:49:14;;;;;;;11.98;7.53;;;31.60;45.80;31.20;101111;;;;563277;254;24186;-80
2022/10/13 08:51:43;;;;;;;19.15;7.65;;;32.30;44.80;31.30;101114;;;;554567;255;24207;-79
2022/10/13 08:54:14;;;;;;;13.45;6.85;;;32.30;44.80;31.20;101115;;;;559929;254;23152;-81
2022/10/13 08:56:45;;;;;;;11.48;6.78;;;32.40;44.10;31.30;101118;;;;561790;255;23171;-83
2022/10/13 08:59:10;;;;;;;9.95;6.18;;;32.70;44.00;31.70;101117;;;;564476;250;24172;-84
2022/10/13 09:01:39;;;;;;;11.43;7.00;;;32.80;43.20;31.30;101116;;;;555108;255;23266;-85
2022/10/13 09:04:32;;;;;;;16.87;6.85;;;32.80;43.20;31.10;101118;;;;555270;255;23154;-82
2022/10/13 09:07:08;;;;;;;10.15;5.72;;;32.00;44.50;30.80;101119;;;;563583;250;23178;-83
2022/10/13 09:09:37;;;;;;;12.95;6.95;;;31.40;44.20;29.90;101125;;;;554927;255;24198;-84
2022/10/13 09:12:05;;;;;;;19.00;6.57;;;31.40;44.20;28.80;101125;;;;562765;255;23140;-81
2022/10/13 09:14:36;;;;;;;10.87;5.40;;;30.50;45.20;27.20;101112;;;;562495;251;23159;-82
2022/10/13 09:17:25;;;;;;;17.60;6.00;;;28.10;48.80;26.30;101113;;;;562285;250;24190;-80
2022/10/13 09:20:15;;;;;;;17.83;6.43;;;28.00;48.20;25.00;101104;;;;554344;255;23168;-84
2022/10/13 09:22:46;;;;;;;7.60;5.27;;;26.80;49.50;24.10;101108;;;;562410;255;24138;-79
2022/10/13 09:25:17;;;;;;;14.63;5.93;;;25.60;51.80;23.80;101110;;;;562184;254;23182;-82
2022/10/13 09:27:50;;;;;;;16.67;5.70;;;25.00;53.10;23.10;101099;;;;560112;253;23169;-82
2022/10/13 09:30:37;;;;;;;18.70;6.00;;;24.50;53.80;22.50;101094;;;;562671;251;24198;-84
2022/10/13 09:33:12;;;;;;;8.23;4.63;;;23.80;55.30;21.80;101089;;;;562295;255;24140;-82
2022/10/13 09:35:59;;;;;;;11.07;5.20;;;23.20;57.00;21.50;101094;;;;554101;255;24147;-83
2022/10/13 09:38:26;;;;;;;10.20;5.13;;;22.70;57.40;21.20;101089;;;;554302;255;23226;-82
2022/10/13 09:41:02;;;;;;;10.70;5.23;;;22.40;58.40;21.50;101082;;;;554392;255;23186;-80
2022/10/13 09:43:47;;;;;;;8.23;4.70;;;22.70;58.40;21.80;101079;;;;562925;250;24141;-80
2022/10/13 09:46:20;;;;;;;10.37;4.93;;;22.90;57.90;22.20;101069;;;;555303;254;24149;-80
2022/10/13 09:48:57;;;;;;;15.13;5.43;;;23.40;57.00;22.20;101076;;;;562945;254;24149;-82
2022/10/13 09:51:37;;;;;;;18.00;5.13;;;23.50;56.70;22.20;101076;;;;563268;254;23170;-80
2022/10/13 09:54:06;;;;;;;10.33;4.83;;;23.70;56.30;22.40;101069;;;;554287;254;24196;-80
2022/10/13 09:56:39;;;;;;;19.70;4.90;;;23.80;56.20;22.50;101072;;;;561107;251;24185;-81
2022/10/13 09:59:29;;;;;;;9.80;4.87;;;23.80;56.20;22.60;101064;;;;563719;250;24156;-83
2022/10/13 10:01:57;;;;;;;12.53;4.60;;;24.00;55.90;22.80;101075;;;;554178;255;24213;-83
2022/10/13 10:04:37;;;;;;;7.70;4.67;;;24.00;55.90;22.90;101062;;;;562567;255;24163;-81
2022/10/13 10:07:15;;;;;;;11.90;4.50;;;24.10;56.10;22.70;101053;;;;554282;255;25330;-85
2022/10/13 10:09:41;;;;;;;9.63;3.97;;;24.10;55.60;22.20;101056;;;;562171;255;24197;-81
2022/10/13 10:12:09;;;;;;;23.60;5.13;;;23.70;55.80;21.40;101059;;;;553925;255;24186;-80
2022/10/13 10:14:41;;;;;;;11.13;3.93;;;23.10;56.70;20.50;101054;;;;562494;250;24146;-80
2022/10/13 10:17:38;;;;;;;11.00;3.80;;;22.10;58.40;19.70;101038;;;;554161;255;24165;-83
2022/10/13 10:20:49;;;;;;;9.30;3.80;;;20.20;63.10;19.00;101037;;;;562625;254;24154;-79
2022/10/13 10:23:45;;;;;;;13.50;4.37;;;20.10;63.00;17.90;101028;;;;553902;255;24135;-81
2022/10/13 10:26:15;;;;;;;16.90;4.10;;;19.20;66.00;17.20;101015;;;;562296;255;24199;-80
2022/10/13 10:29:01;;;;;;;7.67;4.17;;;18.30;68.50;16.70;101015;;;;562326;254;24157;-82
2022/10/13 10:32:08;;;;;;;5.73;3.37;;;17.70;70.50;16.20;101006;;;;553218;255;24156;-83
2022/10/13 10:34:51;;;;;;;11.57;3.63;;;17.10;72.60;15.80;101000;;;;553950;255;24145;-83
2022/10/13 10:37:37;;;;;;;6.53;3.30;;;16.50;74.90;15.50;100986;;;;562610;254;24174;-81
2022/10/13 10:40:14;;;;;;;6.60;3.43;;;16.20;76.30;15.30;100972;;;;553543;255;24177;-83
2022/10/13 10:42:54;;;;;;;10.83;3.07;;;15.90;78.30;15.00;100959;;;;562210;254;24208;-82
2022/10/13 10:45:22;;;;;;;5.37;3.13;;;15.40;79.30;14.80;100969;;;;562617;254;24199;-83
2022/10/13 10:47:51;;;;;;;5.23;3.47;;;15.20;80.60;14.60;100966;;;;562584;250;24232;-81
2022/10/13 10:50:23;;;;;;;11.17;2.83;;;15.20;80.50;14.50;100962;;;;562681;251;24144;-81
2022/10/13 10:53:02;;;;;;;13.07;3.67;;;15.10;81.50;14.40;100965;;;;554348;255;24241;-82
2022/10/13 10:55:51;;;;;;;6.47;3.10;;;15.00;82.10;14.30;100962;;;;563705;253;24136;-80
2022/10/13 10:58:27;;;;;;;9.07;2.93;;;14.90;83.00;14.30;100959;;;;555615;254;24173;-79
2022/10/13 11:00:58;;;;;;;10.07;3.13;;;14.80;83.60;14.20;100954;;;;563400;254;25188;-81
2022/10/13 11:03:47;;;;;;;6.27;3.07;;;14.70;83.50;14.10;100951;;;;561287;253;24176;-80
2022/10/13 11:06:18;;;;;;;11.37;3.77;;;14.70;83.70;14.00;100954;;;;548570;254;24144;-78
2022/10/13 11:08:46;;;;;;;9.33;3.40;;;14.60;83.90;13.90;100963;;;;563230;254;24219;-79
2022/10/13 11:11:20;;;;;;;8.33;2.40;;;14.50;84.40;13.90;100954;;;;563447;250;24221;-81
2022/10/13 11:14:06;;;;;;;13.37;4.23;;;14.50;85.00;13.90;100951;;;;550122;255;37678;-82
2022/10/13 11:16:39;;;;;;;7.13;3.57;;;14.40;85.70;13.80;100957;;;;554801;255;24263;-80
2022/10/13 11:19:36;;;;;;;7.40;3.10;;;14.40;86.40;13.80;100960;;;;560017;252;24163;-81
2022/10/13 11:22:04;;;;;;;13.70;3.77;;;14.40;86.90;13.80;100963;;;;562949;250;24204;-82
2022/10/13 11:24:41;;;;;;;9.53;3.10;;;14.40;87.00;13.80;100965;;;;554021;255;24190;-79
2022/10/13 11:27:15;;;;;;;7.17;3.27;;;14.40;87.40;13.80;100943;;;;554410;255;24151;-79